Terminal Aerodrome Forecast
Issued by NWS Sterling, VA

Current Version | Previous Version | Graphics & Text | Print | Product List | Glossary On
Versions: 1 2 3 4 5 6 7 8 9 10 11 12 13 14 15 16 17 18 19 20 21 22 23 24
000
FTUS41 KLWX 252340
TAFIAD
TAF
KIAD 252340Z 2600/2706 20003KT P6SM FEW050 SCT250
     FM260700 VRB03KT P6SM BKN035
     FM261400 17007KT P6SM BKN040
     FM261700 17010G18KT P6SM BKN040
     FM270200 17009KT 6SM -SHRA OVC025=

USA.gov is the U.S. government's official web portal to all federal, state and local government web resources and services.